METAR & TAF

RJTT 262216Z 14012KT 9999 FEW008 BKN013 21/19 Q1006 RMK 1ST008 5CU013 A2971
RJTT 262200Z 14012KT 9999 FEW008 SCT012 20/19 Q1006 NOSIG RMK 1ST008 4CU012 A2971
RJTT 262130Z 12012KT 9999 FEW008 BKN012 19/19 Q1005 BECMG TL2300 FEW008 BKN015
RJTT 262100Z 14012KT 8000 FEW004 SCT007 BKN010 19/19 Q1005 BECMG FEW008 BKN015 RMK 1ST004 3ST007 7CU010 A2969
RJTT 262046Z 14012KT 8000 FEW004 SCT007 BKN010 19/19 Q1005 RMK 1ST004 3ST007 7CU010 A2969
RJTT 262030Z 13012KT 6000 BR FEW005 BKN007 BKN010 19/18 Q1005 BECMG FEW008 BKN015
RJTT 262019Z 12012KT 6000 BR FEW005 BKN007 BKN010 19/18 Q1005 RMK 1ST005 6ST007 7CU010 A2968 BR N-E
RJTT 262000Z 12011KT 5000 BR FEW005 BKN007 19/18 Q1005 NOSIG RMK 2ST005 7ST007 A2968
RJTT 261930Z 11009KT 4000 BR FEW004 BKN006 19/18 Q1004 NOSIG RMK 1ST004 7ST006 A2967
RJTT 261900Z 11010KT 4500 BR FEW004 BKN006 18/18 Q1004 NOSIG RMK 1ST004 7ST006 A2967
RJTT 261830Z 12009KT 4000 BR FEW003 BKN005 18/18 Q1004 NOSIG RMK 1ST003 7ST005 A2967
RJTT 261805Z 12011KT 4000 BR FEW003 BKN005 18/18 Q1004 RMK 1ST003 7ST005 A2967
RJTT 261800Z 11011KT 4000 BR FEW004 BKN006 18/18 Q1004 NOSIG RMK 1ST004 7ST006 A2967
RJTT 261745Z 11012KT 5000 BR FEW004 BKN006 18/18 Q1004 RMK 1ST004 7ST006 A2967
RJTT 261737Z 11011KT 6000 BR FEW004 BKN006 19/18 Q1004 RMK 1ST004 7ST006 A2967 BR SE

TAF RJTT 261705Z 2618/2800 10008KT 6000 FEW008 BKN015
  TEMPO 2618/2621 4000 BR FEW005 BKN008
  BECMG 2623/2701 17016KT
  BECMG 2712/2715 02010KT
  BECMG 2721/2800 10006KT